sensor_id;sensor_type;location;lat;lon;timestamp;P1;durP1;ratioP1;P2;durP2;ratioP2
51836;SDS011;38941;53.254;6.600;2023-04-05T00:01:42;5.47;;;2.80;;
51836;SDS011;38941;53.254;6.600;2023-04-05T00:03:49;5.75;;;2.90;;
51836;SDS011;38941;53.254;6.600;2023-04-05T00:05:54;6.65;;;3.25;;
51836;SDS011;38941;53.254;6.600;2023-04-05T00:07:57;5.57;;;2.28;;
51836;SDS011;38941;53.254;6.600;2023-04-05T00:10:01;4.65;;;2.22;;
51836;SDS011;38941;53.254;6.600;2023-04-05T00:12:03;5.13;;;2.42;;
51836;SDS011;38941;53.254;6.600;2023-04-05T00:14:05;6.43;;;2.15;;
51836;SDS011;38941;53.254;6.600;2023-04-05T00:16:06;8.38;;;2.50;;
51836;SDS011;38941;53.254;6.600;2023-04-05T00:18:10;4.97;;;2.30;;
51836;SDS011;38941;53.254;6.600;2023-04-05T00:20:22;3.67;;;2.33;;
51836;SDS011;38941;53.254;6.600;2023-04-05T00:22:24;5.30;;;2.38;;
51836;SDS011;38941;53.254;6.600;2023-04-05T00:24:26;5.07;;;2.55;;
51836;SDS011;38941;53.254;6.600;2023-04-05T00:26:29;4.43;;;2.30;;
51836;SDS011;38941;53.254;6.600;2023-04-05T00:28:34;4.90;;;2.05;;
51836;SDS011;38941;53.254;6.600;2023-04-05T00:30:37;12.90;;;3.13;;
51836;SDS011;38941;53.254;6.600;2023-04-05T00:32:39;4.47;;;2.20;;
51836;SDS011;38941;53.254;6.600;2023-04-05T00:34:40;6.28;;;2.30;;
51836;SDS011;38941;53.254;6.600;2023-04-05T00:36:42;7.57;;;2.40;;
51836;SDS011;38941;53.254;6.600;2023-04-05T00:38:44;6.03;;;1.95;;
51836;SDS011;38941;53.254;6.600;2023-04-05T00:40:46;4.28;;;2.10;;
51836;SDS011;38941;53.254;6.600;2023-04-05T00:42:48;4.95;;;2.33;;
51836;SDS011;38941;53.254;6.600;2023-04-05T00:44:49;5.97;;;2.40;;
51836;SDS011;38941;53.254;6.600;2023-04-05T00:46:51;4.20;;;2.00;;
51836;SDS011;38941;53.254;6.600;2023-04-05T00:48:52;6.60;;;2.22;;
51836;SDS011;38941;53.254;6.600;2023-04-05T00:50:54;4.13;;;1.80;;
51836;SDS011;38941;53.254;6.600;2023-04-05T00:52:59;4.03;;;1.98;;
51836;SDS011;38941;53.254;6.600;2023-04-05T00:55:00;5.57;;;2.40;;
51836;SDS011;38941;53.254;6.600;2023-04-05T00:59:09;6.57;;;2.40;;
51836;SDS011;38941;53.254;6.600;2023-04-05T01:01:16;5.90;;;2.47;;
51836;SDS011;38941;53.254;6.600;2023-04-05T01:05:37;4.70;;;2.13;;
51836;SDS011;38941;53.254;6.600;2023-04-05T01:07:50;7.85;;;2.10;;
51836;SDS011;38941;53.254;6.600;2023-04-05T01:09:59;8.25;;;2.53;;
51836;SDS011;38941;53.254;6.600;2023-04-05T01:12:03;5.63;;;2.20;;
51836;SDS011;38941;53.254;6.600;2023-04-05T01:14:07;6.18;;;2.25;;
51836;SDS011;38941;53.254;6.600;2023-04-05T01:16:09;12.73;;;2.33;;
51836;SDS011;38941;53.254;6.600;2023-04-05T01:18:12;7.97;;;2.80;;
51836;SDS011;38941;53.254;6.600;2023-04-05T01:20:14;4.32;;;2.40;;
51836;SDS011;38941;53.254;6.600;2023-04-05T01:27:07;5.65;;;2.17;;
51836;SDS011;38941;53.254;6.600;2023-04-05T01:29:31;7.80;;;2.65;;
51836;SDS011;38941;53.254;6.600;2023-04-05T01:31:46;4.93;;;2.10;;
51836;SDS011;38941;53.254;6.600;2023-04-05T01:34:20;7.93;;;3.38;;
51836;SDS011;38941;53.254;6.600;2023-04-05T01:38:45;4.72;;;2.20;;
51836;SDS011;38941;53.254;6.600;2023-04-05T01:40:50;4.50;;;1.95;;
51836;SDS011;38941;53.254;6.600;2023-04-05T01:42:54;5.43;;;2.42;;
51836;SDS011;38941;53.254;6.600;2023-04-05T01:44:59;4.10;;;2.10;;
51836;SDS011;38941;53.254;6.600;2023-04-05T01:47:07;6.22;;;2.60;;
51836;SDS011;38941;53.254;6.600;2023-04-05T01:49:12;9.90;;;3.00;;
51836;SDS011;38941;53.254;6.600;2023-04-05T01:51:15;6.03;;;2.10;;
51836;SDS011;38941;53.254;6.600;2023-04-05T01:53:17;8.63;;;2.42;;
51836;SDS011;38941;53.254;6.600;2023-04-05T01:55:18;4.57;;;2.75;;
51836;SDS011;38941;53.254;6.600;2023-04-05T01:57:20;8.27;;;2.65;;
51836;SDS011;38941;53.254;6.600;2023-04-05T01:59:25;11.32;;;2.72;;
51836;SDS011;38941;53.254;6.600;2023-04-05T02:01:27;9.25;;;2.70;;
51836;SDS011;38941;53.254;6.600;2023-04-05T02:03:28;6.82;;;2.60;;
51836;SDS011;38941;53.254;6.600;2023-04-05T02:05:36;6.70;;;2.13;;
51836;SDS011;38941;53.254;6.600;2023-04-05T02:07:45;4.45;;;2.20;;
51836;SDS011;38941;53.254;6.600;2023-04-05T02:09:48;3.42;;;1.88;;
51836;SDS011;38941;53.254;6.600;2023-04-05T02:11:50;6.70;;;2.85;;
51836;SDS011;38941;53.254;6.600;2023-04-05T02:13:53;5.72;;;2.17;;
51836;SDS011;38941;53.254;6.600;2023-04-05T02:15:58;2.50;;;1.60;;
51836;SDS011;38941;53.254;6.600;2023-04-05T02:18:05;8.23;;;2.30;;
51836;SDS011;38941;53.254;6.600;2023-04-05T02:20:07;3.58;;;2.08;;
51836;SDS011;38941;53.254;6.600;2023-04-05T02:22:15;5.72;;;3.13;;
51836;SDS011;38941;53.254;6.600;2023-04-05T02:24:17;4.15;;;2.22;;
51836;SDS011;38941;53.254;6.600;2023-04-05T02:26:18;4.28;;;2.08;;
51836;SDS011;38941;53.254;6.600;2023-04-05T02:28:22;5.13;;;2.47;;
51836;SDS011;38941;53.254;6.600;2023-04-05T02:30:23;5.97;;;2.33;;
51836;SDS011;38941;53.254;6.600;2023-04-05T02:32:25;4.05;;;2.35;;
51836;SDS011;38941;53.254;6.600;2023-04-05T02:34:32;4.13;;;2.22;;
51836;SDS011;38941;53.254;6.600;2023-04-05T02:36:33;5.38;;;2.75;;
51836;SDS011;38941;53.254;6.600;2023-04-05T02:38:34;5.65;;;2.20;;
51836;SDS011;38941;53.254;6.600;2023-04-05T02:40:35;3.85;;;1.80;;
51836;SDS011;38941;53.254;6.600;2023-04-05T02:42:43;5.67;;;2.17;;
51836;SDS011;38941;53.254;6.600;2023-04-05T02:44:45;6.63;;;2.60;;
51836;SDS011;38941;53.254;6.600;2023-04-05T02:46:49;8.13;;;2.55;;
51836;SDS011;38941;53.254;6.600;2023-04-05T02:48:54;7.32;;;2.60;;
51836;SDS011;38941;53.254;6.600;2023-04-05T02:51:01;4.80;;;2.47;;
51836;SDS011;38941;53.254;6.600;2023-04-05T02:53:04;4.78;;;2.28;;
51836;SDS011;38941;53.254;6.600;2023-04-05T02:55:06;5.15;;;2.38;;
51836;SDS011;38941;53.254;6.600;2023-04-05T02:57:09;8.68;;;2.60;;
51836;SDS011;38941;53.254;6.600;2023-04-05T02:59:17;6.75;;;3.13;;
51836;SDS011;38941;53.254;6.600;2023-04-05T03:01:21;5.20;;;2.67;;
51836;SDS011;38941;53.254;6.600;2023-04-05T03:03:23;5.53;;;2.42;;
51836;SDS011;38941;53.254;6.600;2023-04-05T03:05:29;6.70;;;2.15;;
51836;SDS011;38941;53.254;6.600;2023-04-05T03:07:36;6.72;;;3.10;;
51836;SDS011;38941;53.254;6.600;2023-04-05T03:09:41;6.55;;;2.90;;
51836;SDS011;38941;53.254;6.600;2023-04-05T03:11:46;6.07;;;2.50;;
51836;SDS011;38941;53.254;6.600;2023-04-05T03:13:49;9.00;;;3.55;;
51836;SDS011;38941;53.254;6.600;2023-04-05T03:15:53;8.80;;;3.15;;
51836;SDS011;38941;53.254;6.600;2023-04-05T03:18:09;7.40;;;2.70;;
51836;SDS011;38941;53.254;6.600;2023-04-05T03:20:10;5.32;;;2.67;;
51836;SDS011;38941;53.254;6.600;2023-04-05T03:22:13;7.03;;;3.83;;
51836;SDS011;38941;53.254;6.600;2023-04-05T03:24:15;9.65;;;3.45;;
51836;SDS011;38941;53.254;6.600;2023-04-05T03:26:16;5.72;;;2.80;;
51836;SDS011;38941;53.254;6.600;2023-04-05T03:28:20;8.05;;;3.13;;
51836;SDS011;38941;53.254;6.600;2023-04-05T03:30:23;6.82;;;3.15;;
51836;SDS011;38941;53.254;6.600;2023-04-05T03:32:27;5.78;;;3.35;;
51836;SDS011;38941;53.254;6.600;2023-04-05T03:34:31;7.60;;;3.53;;
51836;SDS011;38941;53.254;6.600;2023-04-05T03:36:35;6.40;;;3.35;;
51836;SDS011;38941;53.254;6.600;2023-04-05T03:38:46;5.72;;;2.83;;
51836;SDS011;38941;53.254;6.600;2023-04-05T03:40:51;6.90;;;3.40;;
51836;SDS011;38941;53.254;6.600;2023-04-05T03:42:54;7.65;;;3.08;;
51836;SDS011;38941;53.254;6.600;2023-04-05T03:44:58;9.18;;;3.60;;
51836;SDS011;38941;53.254;6.600;2023-04-05T03:47:02;8.13;;;3.47;;
51836;SDS011;38941;53.254;6.600;2023-04-05T03:49:10;8.65;;;3.92;;
51836;SDS011;38941;53.254;6.600;2023-04-05T03:51:12;9.63;;;4.43;;
51836;SDS011;38941;53.254;6.600;2023-04-05T03:53:13;11.07;;;4.28;;
51836;SDS011;38941;53.254;6.600;2023-04-05T03:55:22;7.95;;;4.00;;
51836;SDS011;38941;53.254;6.600;2023-04-05T03:57:25;7.32;;;3.45;;
51836;SDS011;38941;53.254;6.600;2023-04-05T03:59:30;8.27;;;3.72;;
51836;SDS011;38941;53.254;6.600;2023-04-05T04:01:32;9.38;;;4.18;;
51836;SDS011;38941;53.254;6.600;2023-04-05T04:03:37;8.65;;;4.47;;
51836;SDS011;38941;53.254;6.600;2023-04-05T04:05:40;7.25;;;4.15;;
51836;SDS011;38941;53.254;6.600;2023-04-05T04:07:47;9.02;;;4.15;;
51836;SDS011;38941;53.254;6.600;2023-04-05T04:09:48;9.13;;;4.00;;
51836;SDS011;38941;53.254;6.600;2023-04-05T04:11:58;8.90;;;4.05;;
51836;SDS011;38941;53.254;6.600;2023-04-05T04:14:02;8.45;;;4.00;;
51836;SDS011;38941;53.254;6.600;2023-04-05T04:16:04;10.13;;;4.07;;
51836;SDS011;38941;53.254;6.600;2023-04-05T04:18:09;8.20;;;4.05;;
51836;SDS011;38941;53.254;6.600;2023-04-05T04:20:15;8.45;;;4.35;;
51836;SDS011;38941;53.254;6.600;2023-04-05T04:22:16;9.85;;;4.22;;
51836;SDS011;38941;53.254;6.600;2023-04-05T04:24:20;10.52;;;4.57;;
51836;SDS011;38941;53.254;6.600;2023-04-05T04:26:25;8.68;;;3.67;;
51836;SDS011;38941;53.254;6.600;2023-04-05T04:28:29;10.23;;;4.40;;
51836;SDS011;38941;53.254;6.600;2023-04-05T04:30:34;10.80;;;4.20;;
51836;SDS011;38941;53.254;6.600;2023-04-05T04:32:42;6.82;;;3.63;;
51836;SDS011;38941;53.254;6.600;2023-04-05T04:34:51;8.05;;;4.20;;
51836;SDS011;38941;53.254;6.600;2023-04-05T04:36:56;8.05;;;4.25;;
51836;SDS011;38941;53.254;6.600;2023-04-05T04:39:01;9.38;;;4.32;;
51836;SDS011;38941;53.254;6.600;2023-04-05T04:41:05;10.10;;;4.93;;
51836;SDS011;38941;53.254;6.600;2023-04-05T04:43:08;9.13;;;4.28;;
51836;SDS011;38941;53.254;6.600;2023-04-05T04:45:18;8.23;;;4.22;;
51836;SDS011;38941;53.254;6.600;2023-04-05T04:47:20;12.73;;;4.68;;
51836;SDS011;38941;53.254;6.600;2023-04-05T04:49:26;10.45;;;4.93;;
51836;SDS011;38941;53.254;6.600;2023-04-05T04:51:30;8.10;;;3.88;;
51836;SDS011;38941;53.254;6.600;2023-04-05T04:53:36;8.77;;;4.13;;
51836;SDS011;38941;53.254;6.600;2023-04-05T04:55:39;8.45;;;4.38;;
51836;SDS011;38941;53.254;6.600;2023-04-05T04:57:43;9.45;;;4.97;;
51836;SDS011;38941;53.254;6.600;2023-04-05T04:59:44;8.73;;;4.35;;
51836;SDS011;38941;53.254;6.600;2023-04-05T05:01:49;9.45;;;5.50;;
51836;SDS011;38941;53.254;6.600;2023-04-05T05:03:52;11.05;;;4.85;;
51836;SDS011;38941;53.254;6.600;2023-04-05T05:05:59;9.95;;;4.60;;
51836;SDS011;38941;53.254;6.600;2023-04-05T05:08:00;10.52;;;5.05;;
51836;SDS011;38941;53.254;6.600;2023-04-05T05:10:06;9.50;;;4.43;;
51836;SDS011;38941;53.254;6.600;2023-04-05T05:12:09;12.25;;;5.75;;
51836;SDS011;38941;53.254;6.600;2023-04-05T05:14:11;13.93;;;4.90;;
51836;SDS011;38941;53.254;6.600;2023-04-05T05:16:14;11.10;;;4.50;;
51836;SDS011;38941;53.254;6.600;2023-04-05T05:18:17;12.80;;;5.00;;
51836;SDS011;38941;53.254;6.600;2023-04-05T05:20:20;10.70;;;4.90;;
51836;SDS011;38941;53.254;6.600;2023-04-05T05:22:26;10.07;;;4.80;;
51836;SDS011;38941;53.254;6.600;2023-04-05T05:24:28;10.35;;;4.88;;
51836;SDS011;38941;53.254;6.600;2023-04-05T05:26:30;9.80;;;5.07;;
51836;SDS011;38941;53.254;6.600;2023-04-05T05:28:37;12.02;;;6.00;;
51836;SDS011;38941;53.254;6.600;2023-04-05T05:30:47;13.55;;;5.35;;
51836;SDS011;38941;53.254;6.600;2023-04-05T05:32:52;11.23;;;5.55;;
51836;SDS011;38941;53.254;6.600;2023-04-05T05:34:55;12.43;;;5.50;;
51836;SDS011;38941;53.254;6.600;2023-04-05T05:36:57;11.25;;;4.80;;
51836;SDS011;38941;53.254;6.600;2023-04-05T05:39:01;11.27;;;5.47;;
51836;SDS011;38941;53.254;6.600;2023-04-05T05:41:12;11.63;;;5.30;;
51836;SDS011;38941;53.254;6.600;2023-04-05T05:43:15;10.00;;;5.30;;
51836;SDS011;38941;53.254;6.600;2023-04-05T05:45:24;12.98;;;5.50;;
51836;SDS011;38941;53.254;6.600;2023-04-05T05:49:29;11.20;;;5.30;;
51836;SDS011;38941;53.254;6.600;2023-04-05T05:51:32;12.32;;;6.13;;
51836;SDS011;38941;53.254;6.600;2023-04-05T05:53:37;10.30;;;4.82;;
51836;SDS011;38941;53.254;6.600;2023-04-05T05:55:39;9.00;;;4.00;;
51836;SDS011;38941;53.254;6.600;2023-04-05T05:57:41;9.65;;;4.53;;
51836;SDS011;38941;53.254;6.600;2023-04-05T05:59:44;7.68;;;4.40;;
51836;SDS011;38941;53.254;6.600;2023-04-05T06:01:48;7.78;;;4.25;;
51836;SDS011;38941;53.254;6.600;2023-04-05T06:03:51;11.90;;;4.60;;
51836;SDS011;38941;53.254;6.600;2023-04-05T06:05:55;13.50;;;6.40;;
51836;SDS011;38941;53.254;6.600;2023-04-05T06:07:59;12.38;;;5.45;;
51836;SDS011;38941;53.254;6.600;2023-04-05T06:10:01;11.82;;;5.53;;
51836;SDS011;38941;53.254;6.600;2023-04-05T06:12:04;13.85;;;7.10;;
51836;SDS011;38941;53.254;6.600;2023-04-05T06:14:05;11.48;;;5.80;;
51836;SDS011;38941;53.254;6.600;2023-04-05T06:16:09;9.35;;;4.95;;
51836;SDS011;38941;53.254;6.600;2023-04-05T06:18:13;11.35;;;5.82;;
51836;SDS011;38941;53.254;6.600;2023-04-05T06:20:17;12.07;;;5.97;;
51836;SDS011;38941;53.254;6.600;2023-04-05T06:22:20;16.20;;;6.53;;
51836;SDS011;38941;53.254;6.600;2023-04-05T06:24:26;11.93;;;6.43;;
51836;SDS011;38941;53.254;6.600;2023-04-05T06:26:32;12.98;;;6.90;;
51836;SDS011;38941;53.254;6.600;2023-04-05T06:28:34;10.80;;;5.68;;
51836;SDS011;38941;53.254;6.600;2023-04-05T06:30:35;14.65;;;6.03;;
51836;SDS011;38941;53.254;6.600;2023-04-05T06:32:41;15.27;;;6.18;;
51836;SDS011;38941;53.254;6.600;2023-04-05T06:34:43;16.35;;;6.53;;
51836;SDS011;38941;53.254;6.600;2023-04-05T06:36:48;15.70;;;6.47;;
51836;SDS011;38941;53.254;6.600;2023-04-05T06:38:55;13.40;;;6.22;;
51836;SDS011;38941;53.254;6.600;2023-04-05T06:41:03;14.15;;;7.30;;
51836;SDS011;38941;53.254;6.600;2023-04-05T06:43:07;13.98;;;6.93;;
51836;SDS011;38941;53.254;6.600;2023-04-05T06:45:10;12.32;;;6.30;;
51836;SDS011;38941;53.254;6.600;2023-04-05T06:47:18;12.00;;;6.88;;
51836;SDS011;38941;53.254;6.600;2023-04-05T06:49:20;12.68;;;6.40;;
51836;SDS011;38941;53.254;6.600;2023-04-05T06:51:23;13.43;;;6.88;;
51836;SDS011;38941;53.254;6.600;2023-04-05T06:53:27;13.57;;;6.43;;
51836;SDS011;38941;53.254;6.600;2023-04-05T06:55:31;13.57;;;5.93;;
51836;SDS011;38941;53.254;6.600;2023-04-05T06:57:34;17.00;;;6.60;;
51836;SDS011;38941;53.254;6.600;2023-04-05T06:59:36;15.60;;;5.90;;
51836;SDS011;38941;53.254;6.600;2023-04-05T07:01:39;17.08;;;7.63;;
51836;SDS011;38941;53.254;6.600;2023-04-05T07:03:39;10.73;;;5.97;;
51836;SDS011;38941;53.254;6.600;2023-04-05T07:05:48;16.15;;;6.05;;
51836;SDS011;38941;53.254;6.600;2023-04-05T07:07:54;14.43;;;6.65;;
51836;SDS011;38941;53.254;6.600;2023-04-05T07:09:56;10.13;;;5.30;;
51836;SDS011;38941;53.254;6.600;2023-04-05T07:11:58;14.80;;;6.10;;
51836;SDS011;38941;53.254;6.600;2023-04-05T07:14:01;12.57;;;6.88;;
51836;SDS011;38941;53.254;6.600;2023-04-05T07:16:02;12.07;;;6.03;;
51836;SDS011;38941;53.254;6.600;2023-04-05T07:18:04;12.48;;;6.68;;
51836;SDS011;38941;53.254;6.600;2023-04-05T07:20:10;12.07;;;6.22;;
51836;SDS011;38941;53.254;6.600;2023-04-05T07:22:11;11.40;;;6.03;;
51836;SDS011;38941;53.254;6.600;2023-04-05T07:24:12;10.15;;;5.57;;
51836;SDS011;38941;53.254;6.600;2023-04-05T07:26:15;9.05;;;5.55;;
51836;SDS011;38941;53.254;6.600;2023-04-05T07:28:16;12.35;;;6.28;;
51836;SDS011;38941;53.254;6.600;2023-04-05T07:30:17;13.85;;;6.40;;
51836;SDS011;38941;53.254;6.600;2023-04-05T07:32:19;10.45;;;5.55;;
51836;SDS011;38941;53.254;6.600;2023-04-05T07:34:20;10.65;;;5.97;;
51836;SDS011;38941;53.254;6.600;2023-04-05T07:36:21;10.00;;;5.30;;
51836;SDS011;38941;53.254;6.600;2023-04-05T07:38:22;11.48;;;5.95;;
51836;SDS011;38941;53.254;6.600;2023-04-05T07:40:25;7.97;;;4.80;;
51836;SDS011;38941;53.254;6.600;2023-04-05T07:42:26;13.95;;;5.05;;
51836;SDS011;38941;53.254;6.600;2023-04-05T07:44:28;10.35;;;5.70;;
51836;SDS011;38941;53.254;6.600;2023-04-05T07:46:30;9.20;;;5.13;;
51836;SDS011;38941;53.254;6.600;2023-04-05T07:48:32;9.50;;;5.53;;
51836;SDS011;38941;53.254;6.600;2023-04-05T07:50:33;12.05;;;5.63;;
51836;SDS011;38941;53.254;6.600;2023-04-05T07:52:36;9.25;;;5.03;;
51836;SDS011;38941;53.254;6.600;2023-04-05T07:54:37;10.45;;;4.88;;
51836;SDS011;38941;53.254;6.600;2023-04-05T07:56:40;8.50;;;4.43;;
51836;SDS011;38941;53.254;6.600;2023-04-05T07:58:42;11.48;;;5.22;;
51836;SDS011;38941;53.254;6.600;2023-04-05T08:00:44;8.77;;;4.70;;
51836;SDS011;38941;53.254;6.600;2023-04-05T08:02:45;11.43;;;4.80;;
51836;SDS011;38941;53.254;6.600;2023-04-05T08:04:47;9.18;;;4.93;;
51836;SDS011;38941;53.254;6.600;2023-04-05T08:06:48;8.35;;;4.15;;
51836;SDS011;38941;53.254;6.600;2023-04-05T08:08:49;9.00;;;5.85;;
51836;SDS011;38941;53.254;6.600;2023-04-05T08:10:50;10.57;;;5.32;;
51836;SDS011;38941;53.254;6.600;2023-04-05T08:12:52;14.68;;;5.88;;
51836;SDS011;38941;53.254;6.600;2023-04-05T08:14:53;16.83;;;5.20;;
51836;SDS011;38941;53.254;6.600;2023-04-05T08:16:55;11.05;;;5.32;;
51836;SDS011;38941;53.254;6.600;2023-04-05T08:18:56;10.52;;;4.80;;
51836;SDS011;38941;53.254;6.600;2023-04-05T08:20:57;10.60;;;4.82;;
51836;SDS011;38941;53.254;6.600;2023-04-05T08:22:59;8.27;;;4.78;;
51836;SDS011;38941;53.254;6.600;2023-04-05T08:25:00;9.07;;;4.80;;
51836;SDS011;38941;53.254;6.600;2023-04-05T08:27:00;9.65;;;5.15;;
51836;SDS011;38941;53.254;6.600;2023-04-05T08:29:01;10.43;;;4.90;;
51836;SDS011;38941;53.254;6.600;2023-04-05T08:31:02;10.00;;;4.53;;
51836;SDS011;38941;53.254;6.600;2023-04-05T08:33:03;7.90;;;4.43;;
51836;SDS011;38941;53.254;6.600;2023-04-05T08:35:04;8.13;;;4.78;;
51836;SDS011;38941;53.254;6.600;2023-04-05T08:37:05;9.73;;;4.28;;
51836;SDS011;38941;53.254;6.600;2023-04-05T08:39:05;9.82;;;4.30;;
51836;SDS011;38941;53.254;6.600;2023-04-05T08:41:12;7.22;;;4.68;;
51836;SDS011;38941;53.254;6.600;2023-04-05T08:43:18;11.90;;;4.80;;
51836;SDS011;38941;53.254;6.600;2023-04-05T08:45:27;10.95;;;3.80;;
51836;SDS011;38941;53.254;6.600;2023-04-05T08:47:30;10.40;;;4.13;;
51836;SDS011;38941;53.254;6.600;2023-04-05T08:49:31;8.75;;;3.85;;
51836;SDS011;38941;53.254;6.600;2023-04-05T08:51:32;8.52;;;3.80;;
51836;SDS011;38941;53.254;6.600;2023-04-05T08:53:38;7.35;;;3.58;;
51836;SDS011;38941;53.254;6.600;2023-04-05T08:55:39;6.88;;;3.85;;
51836;SDS011;38941;53.254;6.600;2023-04-05T08:57:39;6.90;;;3.90;;
51836;SDS011;38941;53.254;6.600;2023-04-05T08:59:43;7.65;;;3.88;;
51836;SDS011;38941;53.254;6.600;2023-04-05T09:01:44;7.53;;;3.40;;
51836;SDS011;38941;53.254;6.600;2023-04-05T09:03:48;8.15;;;3.60;;
51836;SDS011;38941;53.254;6.600;2023-04-05T09:05:51;5.50;;;3.17;;
51836;SDS011;38941;53.254;6.600;2023-04-05T09:07:52;6.55;;;3.35;;
51836;SDS011;38941;53.254;6.600;2023-04-05T09:09:54;4.70;;;2.55;;
51836;SDS011;38941;53.254;6.600;2023-04-05T09:11:58;7.93;;;3.60;;
51836;SDS011;38941;53.254;6.600;2023-04-05T09:14:03;6.70;;;3.13;;
51836;SDS011;38941;53.254;6.600;2023-04-05T09:16:07;6.47;;;3.20;;
51836;SDS011;38941;53.254;6.600;2023-04-05T09:18:09;5.88;;;3.53;;
51836;SDS011;38941;53.254;6.600;2023-04-05T09:20:10;7.50;;;3.72;;
51836;SDS011;38941;53.254;6.600;2023-04-05T09:22:10;6.75;;;3.10;;
51836;SDS011;38941;53.254;6.600;2023-04-05T09:24:12;7.40;;;3.63;;
51836;SDS011;38941;53.254;6.600;2023-04-05T09:26:16;8.15;;;3.50;;
51836;SDS011;38941;53.254;6.600;2023-04-05T09:28:22;6.97;;;3.58;;
51836;SDS011;38941;53.254;6.600;2023-04-05T09:30:33;8.48;;;3.47;;
51836;SDS011;38941;53.254;6.600;2023-04-05T09:32:36;6.53;;;3.30;;
51836;SDS011;38941;53.254;6.600;2023-04-05T09:34:45;5.28;;;3.15;;
51836;SDS011;38941;53.254;6.600;2023-04-05T09:36:47;7.50;;;4.00;;
51836;SDS011;38941;53.254;6.600;2023-04-05T09:38:48;6.13;;;2.60;;
51836;SDS011;38941;53.254;6.600;2023-04-05T09:40:49;5.22;;;2.58;;
51836;SDS011;38941;53.254;6.600;2023-04-05T09:42:51;5.82;;;3.17;;
51836;SDS011;38941;53.254;6.600;2023-04-05T09:44:56;5.40;;;2.83;;
51836;SDS011;38941;53.254;6.600;2023-04-05T09:47:13;5.40;;;3.17;;
51836;SDS011;38941;53.254;6.600;2023-04-05T09:49:17;6.80;;;3.50;;
51836;SDS011;38941;53.254;6.600;2023-04-05T09:51:33;5.18;;;2.80;;
51836;SDS011;38941;53.254;6.600;2023-04-05T09:53:34;5.53;;;2.50;;
51836;SDS011;38941;53.254;6.600;2023-04-05T09:55:35;5.78;;;2.65;;
51836;SDS011;38941;53.254;6.600;2023-04-05T09:57:36;6.78;;;3.35;;
51836;SDS011;38941;53.254;6.600;2023-04-05T09:59:38;3.67;;;2.20;;
51836;SDS011;38941;53.254;6.600;2023-04-05T10:01:43;4.00;;;2.30;;
51836;SDS011;38941;53.254;6.600;2023-04-05T10:03:47;4.57;;;2.33;;
51836;SDS011;38941;53.254;6.600;2023-04-05T10:05:54;6.50;;;2.72;;
51836;SDS011;38941;53.254;6.600;2023-04-05T10:07:56;8.93;;;2.80;;
51836;SDS011;38941;53.254;6.600;2023-04-05T10:09:58;4.85;;;2.22;;
51836;SDS011;38941;53.254;6.600;2023-04-05T10:11:59;7.80;;;2.40;;
51836;SDS011;38941;53.254;6.600;2023-04-05T10:14:03;5.57;;;2.75;;
51836;SDS011;38941;53.254;6.600;2023-04-05T10:16:05;4.32;;;2.55;;
51836;SDS011;38941;53.254;6.600;2023-04-05T10:18:15;3.83;;;2.53;;
51836;SDS011;38941;53.254;6.600;2023-04-05T10:20:23;4.43;;;2.53;;
51836;SDS011;38941;53.254;6.600;2023-04-05T10:22:29;3.72;;;2.40;;
51836;SDS011;38941;53.254;6.600;2023-04-05T10:24:53;5.38;;;2.50;;
51836;SDS011;38941;53.254;6.600;2023-04-05T10:27:03;7.93;;;2.65;;
51836;SDS011;38941;53.254;6.600;2023-04-05T10:29:08;5.85;;;2.90;;
51836;SDS011;38941;53.254;6.600;2023-04-05T10:38:59;5.30;;;3.33;;
51836;SDS011;38941;53.254;6.600;2023-04-05T10:41:09;8.48;;;3.17;;
51836;SDS011;38941;53.254;6.600;2023-04-05T10:43:14;8.07;;;4.03;;
51836;SDS011;38941;53.254;6.600;2023-04-05T10:45:20;5.90;;;2.30;;
51836;SDS011;38941;53.254;6.600;2023-04-05T10:47:22;7.22;;;2.95;;
51836;SDS011;38941;53.254;6.600;2023-04-05T10:49:36;4.57;;;2.63;;
51836;SDS011;38941;53.254;6.600;2023-04-05T10:51:42;3.30;;;2.33;;
51836;SDS011;38941;53.254;6.600;2023-04-05T10:53:44;9.52;;;3.30;;
51836;SDS011;38941;53.254;6.600;2023-04-05T10:55:45;4.85;;;2.53;;
51836;SDS011;38941;53.254;6.600;2023-04-05T10:57:46;5.50;;;2.90;;
51836;SDS011;38941;53.254;6.600;2023-04-05T10:59:48;5.43;;;2.90;;
51836;SDS011;38941;53.254;6.600;2023-04-05T11:01:50;5.13;;;2.80;;
51836;SDS011;38941;53.254;6.600;2023-04-05T11:03:53;5.03;;;3.10;;
51836;SDS011;38941;53.254;6.600;2023-04-05T11:06:01;5.43;;;3.08;;
51836;SDS011;38941;53.254;6.600;2023-04-05T11:08:22;5.83;;;3.00;;
51836;SDS011;38941;53.254;6.600;2023-04-05T11:10:31;6.47;;;3.10;;
51836;SDS011;38941;53.254;6.600;2023-04-05T11:15:27;12.32;;;3.58;;
51836;SDS011;38941;53.254;6.600;2023-04-05T11:17:29;5.82;;;2.80;;
51836;SDS011;38941;53.254;6.600;2023-04-05T11:21:46;9.40;;;3.58;;
51836;SDS011;38941;53.254;6.600;2023-04-05T11:24:03;5.38;;;3.03;;
51836;SDS011;38941;53.254;6.600;2023-04-05T11:26:06;6.35;;;2.97;;
51836;SDS011;38941;53.254;6.600;2023-04-05T11:28:07;4.60;;;2.97;;
51836;SDS011;38941;53.254;6.600;2023-04-05T11:30:08;6.40;;;2.88;;
51836;SDS011;38941;53.254;6.600;2023-04-05T11:32:10;7.03;;;2.97;;
51836;SDS011;38941;53.254;6.600;2023-04-05T11:34:11;3.83;;;2.70;;
51836;SDS011;38941;53.254;6.600;2023-04-05T11:36:28;8.02;;;2.97;;
51836;SDS011;38941;53.254;6.600;2023-04-05T11:38:37;4.70;;;2.85;;
51836;SDS011;38941;53.254;6.600;2023-04-05T11:40:40;4.97;;;3.15;;
51836;SDS011;38941;53.254;6.600;2023-04-05T11:42:42;4.35;;;2.65;;
51836;SDS011;38941;53.254;6.600;2023-04-05T11:46:46;5.43;;;2.83;;
51836;SDS011;38941;53.254;6.600;2023-04-05T11:48:48;4.38;;;2.63;;
51836;SDS011;38941;53.254;6.600;2023-04-05T11:50:49;5.53;;;2.35;;
51836;SDS011;38941;53.254;6.600;2023-04-05T11:55:10;4.07;;;2.40;;
51836;SDS011;38941;53.254;6.600;2023-04-05T11:57:12;5.43;;;2.65;;
51836;SDS011;38941;53.254;6.600;2023-04-05T11:59:31;5.80;;;2.78;;
51836;SDS011;38941;53.254;6.600;2023-04-05T12:01:33;3.95;;;2.25;;
51836;SDS011;38941;53.254;6.600;2023-04-05T12:03:34;4.18;;;2.47;;
51836;SDS011;38941;53.254;6.600;2023-04-05T12:05:46;4.57;;;2.55;;
51836;SDS011;38941;53.254;6.600;2023-04-05T12:07:53;4.05;;;2.35;;
51836;SDS011;38941;53.254;6.600;2023-04-05T12:09:57;5.15;;;2.55;;
51836;SDS011;38941;53.254;6.600;2023-04-05T12:11:57;5.93;;;2.28;;
51836;SDS011;38941;53.254;6.600;2023-04-05T12:13:59;5.78;;;3.15;;
51836;SDS011;38941;53.254;6.600;2023-04-05T12:16:02;3.22;;;2.08;;
51836;SDS011;38941;53.254;6.600;2023-04-05T12:18:11;5.30;;;2.70;;
51836;SDS011;38941;53.254;6.600;2023-04-05T12:20:14;3.87;;;2.37;;
51836;SDS011;38941;53.254;6.600;2023-04-05T12:22:16;4.05;;;2.53;;
51836;SDS011;38941;53.254;6.600;2023-04-05T12:24:17;6.10;;;2.63;;
51836;SDS011;38941;53.254;6.600;2023-04-05T12:26:18;6.93;;;2.50;;
51836;SDS011;38941;53.254;6.600;2023-04-05T12:28:20;5.13;;;2.88;;
51836;SDS011;38941;53.254;6.600;2023-04-05T12:30:21;5.55;;;2.20;;
51836;SDS011;38941;53.254;6.600;2023-04-05T12:32:22;3.80;;;2.42;;
51836;SDS011;38941;53.254;6.600;2023-04-05T12:34:23;7.32;;;2.80;;
51836;SDS011;38941;53.254;6.600;2023-04-05T12:36:27;5.45;;;2.38;;
51836;SDS011;38941;53.254;6.600;2023-04-05T12:38:30;3.30;;;2.40;;
51836;SDS011;38941;53.254;6.600;2023-04-05T12:40:33;4.05;;;2.53;;
51836;SDS011;38941;53.254;6.600;2023-04-05T12:42:35;5.43;;;2.58;;
51836;SDS011;38941;53.254;6.600;2023-04-05T12:44:37;3.92;;;2.50;;
51836;SDS011;38941;53.254;6.600;2023-04-05T12:46:45;3.50;;;2.15;;
51836;SDS011;38941;53.254;6.600;2023-04-05T12:48:49;4.60;;;2.53;;
51836;SDS011;38941;53.254;6.600;2023-04-05T12:50:51;6.18;;;2.63;;
51836;SDS011;38941;53.254;6.600;2023-04-05T12:54:55;4.00;;;2.50;;
51836;SDS011;38941;53.254;6.600;2023-04-05T12:56:56;7.13;;;3.03;;